Skip Navigation Links
NOAA logo - Click to go to the NOAA homepage
NOAA's National Weather Service
Alaska Aviation Weather Unit
  NWS logo - Click to go to the NWS homepage
Left Navbar Graphic     21 AKDT = 05 GMT

   
NOAA is celebrating 200 years of science, service, and stewardship. Visit the NOAA 200th celebration Web site to learn more.
USA.gov is the U.S. Government's official Web portal to all Federal, state and local government Web resources and services.
Facebook
NWS on Facebook

AAWU Home :: Display TAF Add Bookmark
TAF PAVD 262330Z 2700/2724 26007KT P6SM VCSH BKN060
     FM270600 VRB03KT P6SM VCSH SCT030 BKN060
     FM272200 24006KT P6SM VCSH BKN060 AMD LTD TO CLD VIS AND
      WIND=
PAVD 262316Z 24009KT 10SM FEW040 SCT090 BKN250 10/01 A2951=

METAR PAVD 262316Z 24009KT 10SM FEW040 SCT090 BKN250 10/01 A2951 RMK AO1
     2247Z WEA: NONE TWR WND 22006KT=

PAVD 262336Z 24009KT 10SM FEW040 SCT090 BKN250 10/01 A2951=

METAR PAVD 262336Z 24009KT 10SM FEW040 SCT090 BKN250 10/01 A2951 RMK
 AO1
 2247Z WEA: NONE TWR WND 22006KT=

METAR PAVD 262356Z 25010KT 10SM FEW042 BKN150 BKN250 10/01 A2951=

PAVD 270016Z 24009KT 10SM FEW042 BKN150 BKN250 09/02 A2951=

METAR PAVD 270016Z 24009KT 10SM FEW042 BKN150 BKN250 09/02 A2951 RMK AO1
     2347Z WEA: NONE TWR WND 20008KT=

PAVD 270036Z 25007KT 10SM FEW042 BKN150 BKN250 09/02 A2951=

METAR PAVD 270036Z 25007KT 10SM FEW042 BKN150 BKN250 09/02 A2951 RMK AO1
     2347Z WEA: NONE TWR WND 20008KT=

METAR PAVD 270056Z 24006KT 10SM FEW035 BKN090 BKN250 09/01 A2951=

PAVD 270116Z 24005KT 10SM FEW035 BKN090 BKN250 09/02 A2951=

METAR PAVD 270116Z 24005KT 10SM FEW035 BKN090 BKN250 09/02 A2951 RMK AO1
     0047Z WEA: VCSH E TWR WND 21008KT=

PAVD 270136Z 26006KT 10SM FEW035 BKN090 BKN250 10/02 A2951=

METAR PAVD 270136Z 26006KT 10SM FEW035 BKN090 BKN250 10/02 A2951 RMK AO1
     0047Z WEA: VCSH E TWR WND 21008KT=

METAR PAVD 270156Z 25003KT 10SM FEW030 BKN065 BKN200 10/02 A2952=

PAVD 270216Z 26004KT 10SM FEW030 BKN065 BKN200 09/01 A2953=

METAR PAVD 270216Z 26004KT 10SM FEW030 BKN065 BKN200 09/01 A2953 RMK AO1
     0147Z WEA: VCSH W-SE TWR WND 21004KT=

PAVD 270236Z 26006KT 10SM FEW030 BKN065 BKN200 09/02 A2953=

METAR PAVD 270236Z 26006KT 10SM FEW030 BKN065 BKN200 09/02 A2953 RMK
 AO1
 0147Z WEA: VCSH W-SE TWR WND 21004KT=

METAR PAVD 270256Z 24005KT 10SM FEW040 BKN060 OVC100 09/02 A2953=

METAR PAVD 270316Z 28003KT 10SM FEW040 BKN060 OVC100 09/03 A2953=

METAR PAVD 270316Z 28003KT 10SM FEW040 BKN060 OVC100 09/03 A2953 RMK AO1
     0247Z WEA: -RA RAB40 TWR WND 19004KT=

METAR PAVD 270336Z 17003KT 10SM FEW040 BKN060 OVC100 09/03 A2954=

METAR PAVD 270336Z 17003KT 10SM FEW040 BKN060 OVC100 09/03 A2954 RMK
 AO1
 0247Z WEA: -RA RAB40 TWR WND 19004KT=

METAR PAVD 270356Z 00000KT 10SM SCT060 BKN090 BKN200 09/03 A2954=

PAVD 270416Z 00000KT 10SM SCT060 BKN090 BKN200 08/03 A2955=

METAR PAVD 270416Z 00000KT 10SM SCT060 BKN090 BKN200 08/03 A2955 RMK
 AO1
 0347Z WEA: VCSH ALQDS RAE00 TWR WND 00000KT=

PAVD 270436Z 00000KT 10SM SCT060 BKN090 BKN200 08/03 A2955=

METAR PAVD 270436Z 00000KT 10SM SCT060 BKN090 BKN200 08/03 A2955 RMK AO1
     0347Z WEA: VCSH ALQDS RAE00 TWR WND 00000KT=

METAR PAVD 270456Z 00000KT 10SM FEW040 BKN090 BKN200 08/03 A2956 RMK
 AO1
 0447Z WEA: -RA RAB30 PCPN VRY LGT TWR WND 00000KT=


NOAA's National Weather Service
Alaska Aviation Weather Unit
6930 Sand Lake Road
Anchorage, AK 99502-1845
Disclaimer
Credits
Glossary
Privacy Policy
About Us
Career Opportunities
Contact AAWU Internet Services Site last modified: April, 17th 2012